Time;durP1;ratioP1;P1;durP2;ratioP2;P2;SDS_P1;SDS_P2;PMS_P1;PMS_P2;Temp;Humidity;BMP_temperature;BMP_pressure;BME280_temperature;BME280_humidity;BME280_pressure;Samples;Min_cycle;Max_cycle;Signal;HPM_P1;HPM_P2
2021/12/20 00:02:08;;;;;;;1.65;0.80;;;18.10;70.00;;;;;;10380866;28;20033;-65
2021/12/20 00:07:09;;;;;;;2.33;0.60;;;18.10;70.00;;;;;;10373690;28;20038;-65
2021/12/20 00:12:10;;;;;;;3.00;0.70;;;18.10;70.00;;;;;;10373294;28;20446;-65
2021/12/20 00:17:10;;;;;;;1.58;0.65;;;18.10;70.00;;;;;;10373052;28;20459;-64
2021/12/20 00:22:11;;;;;;;1.63;0.75;;;18.10;70.00;;;;;;10371860;28;20109;-65
2021/12/20 00:27:14;;;;;;;2.53;0.70;;;18.10;70.00;;;;;;10373029;28;20045;-65
2021/12/20 00:32:16;;;;;;;1.67;0.75;;;18.10;70.00;;;;;;10372392;28;20121;-65
2021/12/20 00:42:36;;;;;;;1.17;0.50;;;18.10;69.90;;;;;;10361128;28;20053;-65
2021/12/20 00:47:38;;;;;;;1.50;0.70;;;18.10;69.70;;;;;;10372440;28;20025;-64
2021/12/20 00:52:40;;;;;;;1.60;0.65;;;18.20;69.70;;;;;;10372470;28;20096;-65
2021/12/20 00:57:43;;;;;;;1.27;0.50;;;18.10;69.60;;;;;;10371011;28;20088;-65
2021/12/20 01:02:45;;;;;;;2.63;0.60;;;18.10;69.60;;;;;;10378981;28;20037;-65
2021/12/20 01:07:46;;;;;;;2.45;0.52;;;18.10;69.60;;;;;;10371736;28;20474;-64
2021/12/20 01:12:50;;;;;;;1.40;0.35;;;18.10;69.70;;;;;;10371374;28;20052;-64
2021/12/20 01:17:52;;;;;;;1.75;0.52;;;18.10;69.60;;;;;;10371507;28;20038;-65
2021/12/20 01:22:53;;;;;;;2.80;0.68;;;18.10;69.50;;;;;;10371340;28;20060;-65
2021/12/20 01:27:54;;;;;;;1.52;0.50;;;18.10;69.50;;;;;;10370265;28;20118;-65
2021/12/20 01:32:55;;;;;;;1.10;0.57;;;18.10;69.50;;;;;;10370748;28;20038;-65
2021/12/20 01:37:56;;;;;;;2.17;0.68;;;18.10;69.40;;;;;;10371286;28;20040;-65
2021/12/20 01:42:58;;;;;;;1.80;0.38;;;18.10;69.30;;;;;;10370845;28;20030;-64
2021/12/20 01:48:04;;;;;;;1.63;0.45;;;18.20;69.20;;;;;;10369816;28;20121;-65
2021/12/20 01:53:04;;;;;;;1.95;0.60;;;18.10;69.20;;;;;;10376653;28;20125;-65
2021/12/20 01:58:05;;;;;;;2.22;0.60;;;18.10;69.10;;;;;;10378819;28;20552;-65
2021/12/20 02:03:08;;;;;;;1.38;0.55;;;18.10;69.10;;;;;;10385382;28;20448;-66
2021/12/20 02:13:17;;;;;;;1.67;0.60;;;18.10;69.10;;;;;;10377533;28;20045;-65
2021/12/20 02:18:18;;;;;;;1.88;0.68;;;18.10;69.10;;;;;;10378138;28;20045;-65
2021/12/20 02:23:19;;;;;;;1.13;0.40;;;18.20;69.00;;;;;;10377303;28;20424;-65
2021/12/20 02:28:23;;;;;;;2.42;0.55;;;18.20;68.90;;;;;;10376037;28;20062;-65
2021/12/20 02:38:45;;;;;;;2.72;0.50;;;18.20;68.80;;;;;;10377092;28;20113;-65
2021/12/20 02:43:57;;;;;;;1.58;0.43;;;18.20;68.80;;;;;;10376940;28;20038;-65
2021/12/20 02:48:59;;;;;;;1.20;0.60;;;18.20;68.70;;;;;;10376820;28;20025;-65
2021/12/20 02:54:03;;;;;;;2.50;0.50;;;18.20;68.70;;;;;;10376417;28;20402;-65
2021/12/20 02:59:06;;;;;;;0.57;0.32;;;18.20;68.70;;;;;;10375172;28;20038;-65
2021/12/20 03:04:08;;;;;;;1.48;0.77;;;18.20;68.70;;;;;;10375044;28;20049;-66
2021/12/20 03:09:14;;;;;;;1.13;0.40;;;18.20;68.70;;;;;;10376185;28;20133;-65
2021/12/20 03:14:21;;;;;;;3.88;0.60;;;18.30;68.60;;;;;;10375625;28;20120;-66
2021/12/20 03:19:22;;;;;;;2.42;0.93;;;18.30;68.50;;;;;;10376193;28;20373;-65
2021/12/20 03:24:23;;;;;;;1.60;0.60;;;18.20;68.50;;;;;;10375237;28;20042;-65
2021/12/20 03:29:24;;;;;;;1.25;0.43;;;18.20;68.50;;;;;;10375371;28;20030;-66
2021/12/20 03:34:25;;;;;;;1.95;1.02;;;18.20;68.50;;;;;;10374996;28;20061;-66
2021/12/20 03:39:26;;;;;;;0.77;0.40;;;18.20;68.40;;;;;;10374988;28;20032;-65
2021/12/20 03:44:31;;;;;;;2.15;0.60;;;18.20;68.40;;;;;;10374573;28;20038;-66
2021/12/20 03:49:33;;;;;;;1.25;0.40;;;18.20;68.40;;;;;;10374453;28;20037;-66
2021/12/20 03:54:35;;;;;;;1.90;0.40;;;18.20;68.40;;;;;;10374272;28;20099;-66
2021/12/20 03:59:36;;;;;;;3.13;0.90;;;18.20;68.30;;;;;;10374925;28;20049;-66
2021/12/20 04:04:36;;;;;;;1.48;0.68;;;18.20;68.40;;;;;;10378767;28;20034;-66
2021/12/20 04:09:37;;;;;;;1.42;0.55;;;18.20;68.40;;;;;;10374222;28;20108;-66
2021/12/20 04:14:38;;;;;;;1.17;0.50;;;18.20;68.30;;;;;;10372643;28;20034;-66
2021/12/20 04:19:38;;;;;;;1.58;0.70;;;18.20;68.30;;;;;;10373612;28;20057;-66
2021/12/20 04:24:39;;;;;;;1.92;0.60;;;18.20;68.30;;;;;;10372895;28;20467;-66
2021/12/20 04:29:40;;;;;;;2.17;0.80;;;18.20;68.20;;;;;;10373131;28;20149;-66
2021/12/20 04:34:41;;;;;;;1.65;0.40;;;18.20;68.20;;;;;;10372364;28;20439;-66
2021/12/20 04:39:41;;;;;;;3.40;0.68;;;18.20;68.20;;;;;;10372629;28;20030;-66
2021/12/20 04:44:43;;;;;;;1.67;0.60;;;18.20;68.20;;;;;;10372279;28;20037;-66
2021/12/20 04:49:44;;;;;;;2.40;0.70;;;18.20;68.10;;;;;;10371121;28;20045;-66
2021/12/20 04:54:45;;;;;;;3.75;0.75;;;18.20;68.10;;;;;;10371856;28;20060;-66
2021/12/20 04:59:45;;;;;;;2.03;0.50;;;18.20;68.10;;;;;;10375544;28;20113;-65
2021/12/20 05:04:46;;;;;;;1.35;0.65;;;18.20;68.10;;;;;;10372320;28;20057;-66
2021/12/20 05:09:47;;;;;;;2.10;0.55;;;18.20;68.00;;;;;;10370851;28;20104;-66
2021/12/20 05:14:48;;;;;;;1.42;0.63;;;18.30;67.90;;;;;;10370238;28;20037;-66
2021/12/20 05:19:48;;;;;;;1.85;0.73;;;18.20;67.80;;;;;;10370724;28;20495;-66
2021/12/20 05:24:49;;;;;;;1.60;0.55;;;18.20;67.80;;;;;;10371054;28;20034;-66
2021/12/20 05:29:50;;;;;;;1.98;0.63;;;18.30;67.80;;;;;;10377792;28;20029;-66
2021/12/20 05:34:51;;;;;;;2.50;0.60;;;18.30;67.70;;;;;;10378827;28;20049;-66
2021/12/20 05:39:52;;;;;;;2.53;0.80;;;18.30;67.70;;;;;;10379481;28;20044;-66
2021/12/20 05:44:54;;;;;;;3.15;0.93;;;18.20;67.60;;;;;;10377798;28;20046;-66
2021/12/20 05:49:55;;;;;;;3.13;0.45;;;18.30;68.00;;;;;;10374781;28;20034;-66
2021/12/20 05:54:56;;;;;;;6.53;0.70;;;18.30;67.90;;;;;;10378692;28;20074;-66
2021/12/20 05:59:57;;;;;;;3.72;0.57;;;18.30;68.30;;;;;;10382825;28;20037;-66
2021/12/20 06:04:57;;;;;;;2.70;0.60;;;18.30;68.40;;;;;;10377313;28;20480;-70
2021/12/20 06:09:58;;;;;;;4.05;0.50;;;18.30;68.70;;;;;;10378107;28;20387;-66
2021/12/20 06:14:59;;;;;;;3.05;0.70;;;18.40;69.70;;;;;;10377875;28;20376;-68
2021/12/20 06:20:00;;;;;;;5.13;0.70;;;18.40;69.10;;;;;;10377982;28;20365;-67
2021/12/20 06:25:01;;;;;;;7.30;1.67;;;18.40;69.50;;;;;;10377551;28;20554;-66
2021/12/20 06:30:03;;;;;;;5.47;1.23;;;18.40;70.20;;;;;;10376186;28;20025;-66
2021/12/20 06:35:05;;;;;;;5.38;0.77;;;18.50;69.80;;;;;;10376461;28;20506;-67
2021/12/20 06:40:06;;;;;;;4.43;0.82;;;18.40;69.60;;;;;;10376838;28;20065;-66
2021/12/20 06:45:08;;;;;;;10.85;1.63;;;18.30;69.00;;;;;;10376824;28;20034;-65
2021/12/20 06:50:09;;;;;;;13.95;1.83;;;18.40;69.30;;;;;;10376544;28;20033;-66
2021/12/20 06:55:10;;;;;;;16.50;2.10;;;18.40;69.30;;;;;;10369731;28;20121;-65
2021/12/20 07:00:12;;;;;;;10.32;1.50;;;18.40;69.40;;;;;;10382013;28;20182;-65
2021/12/20 07:05:12;;;;;;;13.93;2.45;;;18.40;69.10;;;;;;10373357;28;20032;-67
2021/12/20 07:10:13;;;;;;;10.77;2.10;;;18.30;69.20;;;;;;10371414;28;20122;-65
2021/12/20 07:15:15;;;;;;;12.00;1.80;;;18.20;69.10;;;;;;10372445;28;20411;-66
2021/12/20 07:20:15;;;;;;;11.85;1.92;;;18.30;69.10;;;;;;10372814;28;20088;-65
2021/12/20 07:25:19;;;;;;;14.13;2.20;;;18.20;68.90;;;;;;10375462;28;20060;-66
2021/12/20 07:30:20;;;;;;;16.38;1.75;;;18.20;69.10;;;;;;10374238;28;20053;-66
2021/12/20 07:35:22;;;;;;;11.82;1.98;;;18.20;69.50;;;;;;10371663;28;20080;-69
2021/12/20 07:40:23;;;;;;;20.92;2.53;;;18.20;69.40;;;;;;10372166;28;20424;-67
2021/12/20 07:45:24;;;;;;;18.83;2.28;;;18.10;69.50;;;;;;10370531;28;20312;-64
2021/12/20 07:50:25;;;;;;;13.73;2.50;;;18.10;69.80;;;;;;10368936;28;20030;-66
2021/12/20 07:55:25;;;;;;;13.48;2.80;;;18.10;69.80;;;;;;10371428;28;20037;-64
2021/12/20 08:00:27;;;;;;;19.88;2.17;;;18.10;69.90;;;;;;10374593;28;20030;-64
2021/12/20 08:05:28;;;;;;;20.13;1.83;;;18.00;69.60;;;;;;10371763;28;20034;-67
2021/12/20 08:10:29;;;;;;;13.15;1.88;;;18.00;69.50;;;;;;10371928;28;20026;-67
2021/12/20 08:15:30;;;;;;;7.88;1.85;;;18.00;69.20;;;;;;10372660;28;20488;-67
2021/12/20 08:20:31;;;;;;;8.95;1.73;;;18.10;68.90;;;;;;10371992;28;20042;-67
2021/12/20 08:25:32;;;;;;;20.50;3.10;;;18.10;68.60;;;;;;10379296;28;20050;-67
2021/12/20 08:30:33;;;;;;;10.93;1.70;;;18.10;69.30;;;;;;10360403;28;20026;-67
2021/12/20 08:35:34;;;;;;;9.52;1.95;;;18.10;68.60;;;;;;10369464;28;20491;-67
2021/12/20 08:40:35;;;;;;;12.98;1.98;;;18.10;68.40;;;;;;10372278;28;20054;-67
2021/12/20 08:45:37;;;;;;;10.10;1.90;;;18.10;68.50;;;;;;10370567;28;20061;-66
2021/12/20 08:50:39;;;;;;;7.25;2.08;;;18.10;68.40;;;;;;10371432;28;20396;-67
2021/12/20 08:55:40;;;;;;;10.15;2.08;;;18.10;68.40;;;;;;10371736;28;20483;-67
2021/12/20 09:00:41;;;;;;;8.10;1.75;;;18.20;68.10;;;;;;10371634;28;20065;-68
2021/12/20 09:05:42;;;;;;;6.40;1.30;;;18.10;68.10;;;;;;10371105;28;20112;-69
2021/12/20 09:10:43;;;;;;;7.65;2.10;;;18.10;68.20;;;;;;10370876;28;20100;-69
2021/12/20 09:15:44;;;;;;;9.88;1.50;;;18.10;68.10;;;;;;10369523;28;20129;-69
2021/12/20 09:20:45;;;;;;;7.53;1.80;;;18.10;68.00;;;;;;10369279;28;20108;-68
2021/12/20 09:25:46;;;;;;;6.82;1.20;;;18.10;68.00;;;;;;10370479;28;20022;-68
2021/12/20 09:30:48;;;;;;;7.55;1.48;;;18.10;67.90;;;;;;10370765;28;20458;-68
2021/12/20 09:35:50;;;;;;;8.25;1.63;;;18.20;68.40;;;;;;10370766;28;20057;-69
2021/12/20 09:41:13;;;;;;;8.57;1.73;;;18.10;67.90;;;;;;10369981;28;20041;-67
2021/12/20 09:46:16;;;;;;;6.53;1.45;;;18.00;67.90;;;;;;10371206;28;20034;-66
2021/12/20 09:51:17;;;;;;;5.57;1.08;;;18.10;68.70;;;;;;10370893;28;20025;-68
2021/12/20 09:56:29;;;;;;;7.63;1.65;;;18.20;68.60;;;;;;10370874;28;20041;-66
2021/12/20 10:01:31;;;;;;;11.30;1.67;;;18.30;69.60;;;;;;10359432;28;20026;-65
2021/12/20 10:06:32;;;;;;;7.30;1.48;;;18.30;68.90;;;;;;10369621;28;20034;-66
2021/12/20 10:11:33;;;;;;;4.43;1.48;;;18.20;68.50;;;;;;10372596;28;20041;-67
2021/12/20 10:16:35;;;;;;;4.32;1.60;;;18.20;68.50;;;;;;10376909;28;20040;-66
2021/12/20 10:21:41;;;;;;;7.85;1.48;;;18.20;68.50;;;;;;10377849;28;20030;-65
2021/12/20 10:26:45;;;;;;;6.07;0.90;;;18.20;68.60;;;;;;10378025;28;20059;-64
2021/12/20 10:31:46;;;;;;;8.18;2.08;;;18.10;68.90;;;;;;10376320;28;20568;-65
2021/12/20 10:36:53;;;;;;;4.68;1.38;;;18.10;69.40;;;;;;10376875;28;20044;-63
2021/12/20 10:41:54;;;;;;;11.57;1.52;;;18.10;69.60;;;;;;10377259;28;20026;-66
2021/12/20 10:46:58;;;;;;;6.40;1.25;;;18.10;69.50;;;;;;10375944;28;20050;-64
2021/12/20 10:51:59;;;;;;;6.57;1.60;;;18.00;69.50;;;;;;10376402;28;20033;-64
2021/12/20 10:57:05;;;;;;;4.97;1.27;;;18.10;69.60;;;;;;10373933;28;20034;-66
2021/12/20 11:03:08;;;;;;;6.97;1.52;;;18.00;70.00;;;;;;10381978;28;20104;-64
2021/12/20 11:12:33;;;;;;;14.60;1.55;;;18.10;70.00;;;;;;10375885;28;20484;-67
2021/12/20 11:17:36;;;;;;;9.77;1.23;;;18.20;70.10;;;;;;10375889;28;20084;-67
2021/12/20 11:22:37;;;;;;;16.45;1.95;;;18.20;69.80;;;;;;10374450;28;20029;-68
2021/12/20 11:27:46;;;;;;;17.90;2.47;;;18.20;70.10;;;;;;10375476;28;20492;-67
2021/12/20 11:32:49;;;;;;;10.23;1.60;;;18.30;70.10;;;;;;10375149;28;20109;-67
2021/12/20 11:37:50;;;;;;;13.40;2.20;;;18.20;70.40;;;;;;10373595;28;20037;-67
2021/12/20 11:42:51;;;;;;;6.00;1.58;;;18.20;70.90;;;;;;10374580;28;20033;-66
2021/12/20 11:48:06;;;;;;;11.85;2.00;;;18.20;71.30;;;;;;10356910;28;20049;-66
2021/12/20 11:53:16;;;;;;;9.50;2.80;;;18.20;71.30;;;;;;10372923;28;20038;-65
2021/12/20 11:58:27;;;;;;;8.63;1.77;;;18.10;71.10;;;;;;10372708;28;20030;-63
2021/12/20 12:03:34;;;;;;;20.17;2.30;;;18.00;71.10;;;;;;10379059;28;20109;-62
2021/12/20 12:08:59;;;;;;;7.47;1.75;;;18.00;71.50;;;;;;10372742;28;20038;-64
2021/12/20 12:14:02;;;;;;;12.88;1.80;;;18.00;71.20;;;;;;10373180;28;20061;-65
2021/12/20 12:19:03;;;;;;;13.52;2.83;;;18.00;71.00;;;;;;10373442;28;20045;-63
2021/12/20 12:24:04;;;;;;;13.93;2.13;;;17.90;70.90;;;;;;10373111;28;20038;-66
2021/12/20 12:29:14;;;;;;;6.32;1.80;;;17.90;71.00;;;;;;10370068;28;20026;-63
2021/12/20 12:34:17;;;;;;;6.18;1.58;;;17.80;71.00;;;;;;10368456;28;20053;-65
2021/12/20 12:39:27;;;;;;;6.03;1.60;;;17.80;71.10;;;;;;10369431;28;20037;-63
2021/12/20 12:44:31;;;;;;;7.97;1.70;;;17.70;71.10;;;;;;10372588;28;20037;-64
2021/12/20 12:49:39;;;;;;;5.25;1.40;;;17.70;71.00;;;;;;10372431;28;20034;-63
2021/12/20 12:54:56;;;;;;;7.38;1.23;;;17.60;71.00;;;;;;10372631;28;20376;-62
2021/12/20 13:00:22;;;;;;;3.20;1.02;;;17.60;71.10;;;;;;10360034;28;20403;-62
2021/12/20 13:05:26;;;;;;;5.97;1.30;;;17.50;70.90;;;;;;10359671;28;20060;-68
2021/12/20 13:10:33;;;;;;;5.10;0.80;;;17.50;70.70;;;;;;10371860;28;20436;-68
2021/12/20 13:15:55;;;;;;;5.60;1.10;;;17.50;70.50;;;;;;10370512;28;20088;-67
2021/12/20 13:21:01;;;;;;;4.35;1.08;;;17.50;70.40;;;;;;10371741;28;20403;-67
2021/12/20 13:26:10;;;;;;;3.88;0.98;;;17.60;70.20;;;;;;10370365;28;20117;-68
2021/12/20 13:31:13;;;;;;;5.68;1.27;;;17.60;70.00;;;;;;10371513;28;20061;-67
2021/12/20 13:36:24;;;;;;;2.42;0.65;;;17.70;69.80;;;;;;10369965;28;20503;-63
2021/12/20 13:41:32;;;;;;;4.38;1.05;;;17.70;69.50;;;;;;10371454;28;20022;-68
2021/12/20 13:46:46;;;;;;;6.50;1.00;;;17.80;69.50;;;;;;10355789;28;20088;-67
2021/12/20 13:51:59;;;;;;;4.57;1.17;;;17.80;69.30;;;;;;10378864;28;20033;-66
2021/12/20 13:57:14;;;;;;;3.58;0.93;;;17.90;69.10;;;;;;10378892;28;20475;-67
2021/12/20 14:02:21;;;;;;;3.47;0.90;;;17.90;68.90;;;;;;10384413;28;20100;-68
2021/12/20 14:07:38;;;;;;;4.25;1.17;;;17.90;68.80;;;;;;10377347;28;20369;-67
2021/12/20 14:12:47;;;;;;;9.68;1.77;;;17.90;68.60;;;;;;10378154;28;20026;-67
2021/12/20 14:18:08;;;;;;;13.10;1.80;;;17.90;68.20;;;;;;10377268;28;20061;-66
2021/12/20 14:23:15;;;;;;;8.23;1.80;;;17.90;68.20;;;;;;10377591;28;20033;-67
2021/12/20 14:28:25;;;;;;;9.20;1.98;;;17.90;68.30;;;;;;10375699;28;20108;-66
2021/12/20 14:33:37;;;;;;;10.20;1.70;;;17.90;68.40;;;;;;10371700;28;20378;-67
2021/12/20 14:38:45;;;;;;;7.10;1.63;;;17.90;68.60;;;;;;10376133;28;20065;-66
2021/12/20 14:43:47;;;;;;;6.10;2.00;;;17.90;68.60;;;;;;10373486;28;20491;-66
2021/12/20 14:48:54;;;;;;;10.23;2.00;;;17.90;68.70;;;;;;10376286;28;20096;-70
2021/12/20 14:54:19;;;;;;;12.02;1.88;;;17.90;69.60;;;;;;10335054;28;20113;-68
2021/12/20 14:59:21;;;;;;;17.02;2.63;;;18.00;69.20;;;;;;10337423;28;20549;-67
2021/12/20 15:04:22;;;;;;;12.32;2.10;;;18.00;69.10;;;;;;10376395;28;20570;-68
2021/12/20 15:09:26;;;;;;;27.88;3.40;;;18.10;69.30;;;;;;10375938;28;20322;-67
2021/12/20 15:14:27;;;;;;;18.88;3.00;;;18.00;70.00;;;;;;10376058;28;20038;-69
2021/12/20 15:19:27;;;;;;;20.90;4.28;;;17.90;69.90;;;;;;10376410;28;20583;-68
2021/12/20 15:24:28;;;;;;;12.80;2.83;;;17.90;70.00;;;;;;10374559;28;20084;-68
2021/12/20 15:29:30;;;;;;;13.07;2.35;;;17.90;69.90;;;;;;10374176;28;20029;-68
2021/12/20 15:34:31;;;;;;;19.33;3.45;;;17.90;70.00;;;;;;10374334;28;20046;-68
2021/12/20 15:39:32;;;;;;;15.57;2.67;;;17.90;70.20;;;;;;10375291;28;20034;-65
2021/12/20 15:44:33;;;;;;;17.50;2.78;;;17.90;70.10;;;;;;10374993;28;20117;-66
2021/12/20 15:49:33;;;;;;;15.18;3.47;;;17.90;69.90;;;;;;10374348;28;20507;-66
2021/12/20 15:54:34;;;;;;;19.70;2.85;;;17.90;69.70;;;;;;10373757;28;20479;-64
2021/12/20 15:59:35;;;;;;;18.77;2.10;;;17.90;69.70;;;;;;10374977;28;20122;-65
2021/12/20 16:04:37;;;;;;;16.55;3.38;;;17.90;69.90;;;;;;10361444;28;20049;-64
2021/12/20 16:09:38;;;;;;;18.38;2.38;;;17.90;70.10;;;;;;10367337;28;20167;-64
2021/12/20 16:14:38;;;;;;;12.43;2.60;;;17.90;69.50;;;;;;10372560;28;20180;-63
2021/12/20 16:19:39;;;;;;;10.63;3.53;;;18.00;69.70;;;;;;10372942;28;20037;-63
2021/12/20 16:24:40;;;;;;;14.90;2.88;;;18.00;69.70;;;;;;10374199;28;20376;-63
2021/12/20 16:29:41;;;;;;;15.02;2.80;;;18.00;69.80;;;;;;10372705;28;20116;-63
2021/12/20 16:34:41;;;;;;;15.93;3.33;;;18.00;69.60;;;;;;10371215;28;20085;-64
2021/12/20 16:39:42;;;;;;;13.35;2.72;;;18.00;70.00;;;;;;10372477;28;20056;-62
2021/12/20 16:44:49;;;;;;;17.48;3.08;;;17.90;69.80;;;;;;10371269;28;20169;-62
2021/12/20 16:49:53;;;;;;;8.98;2.17;;;17.90;69.70;;;;;;10371224;28;20038;-62
2021/12/20 16:54:56;;;;;;;10.18;2.10;;;17.90;69.70;;;;;;10358144;28;20164;-62
2021/12/20 16:59:56;;;;;;;7.90;2.20;;;18.00;69.10;;;;;;10371152;28;20026;-62
2021/12/20 17:05:07;;;;;;;10.52;2.10;;;18.00;68.50;;;;;;10370111;28;20025;-63
2021/12/20 17:10:08;;;;;;;10.23;1.83;;;18.00;68.20;;;;;;10368190;28;20033;-63
2021/12/20 17:15:09;;;;;;;5.97;1.45;;;18.10;71.00;;;;;;10370346;28;20038;-62
2021/12/20 17:20:10;;;;;;;12.05;2.15;;;18.40;70.30;;;;;;10369631;28;20622;-62
2021/12/20 17:25:11;;;;;;;6.32;1.77;;;18.40;70.50;;;;;;10371607;28;20041;-62
2021/12/20 17:30:12;;;;;;;10.13;2.33;;;18.30;70.10;;;;;;10371380;28;20029;-61
2021/12/20 17:35:13;;;;;;;10.88;1.52;;;18.30;70.30;;;;;;10371003;28;20061;-63
2021/12/20 17:40:17;;;;;;;5.47;1.92;;;18.30;70.70;;;;;;10369828;28;20026;-63
2021/12/20 17:45:21;;;;;;;11.88;2.00;;;18.30;70.20;;;;;;10371050;28;20060;-63
2021/12/20 17:50:22;;;;;;;14.52;2.15;;;18.30;70.40;;;;;;10370527;28;20030;-65
2021/12/20 17:55:23;;;;;;;7.25;1.92;;;18.20;69.80;;;;;;10369807;28;20030;-69
2021/12/20 18:00:27;;;;;;;9.13;2.20;;;18.00;69.60;;;;;;10378054;28;20053;-65
2021/12/20 18:05:28;;;;;;;7.80;2.08;;;18.00;69.60;;;;;;10368904;28;20049;-68
2021/12/20 18:10:28;;;;;;;9.45;1.73;;;18.00;69.10;;;;;;10370315;28;20041;-66
2021/12/20 18:15:29;;;;;;;6.72;1.98;;;18.00;68.90;;;;;;10370517;28;20092;-68
2021/12/20 18:20:33;;;;;;;9.32;1.58;;;18.00;68.70;;;;;;10370468;28;20113;-65
2021/12/20 18:25:34;;;;;;;8.07;1.70;;;18.00;68.70;;;;;;10369283;28;20037;-61
2021/12/20 18:30:37;;;;;;;14.93;1.85;;;18.00;68.60;;;;;;10369978;28;20420;-65
2021/12/20 18:35:38;;;;;;;7.68;1.40;;;18.00;68.40;;;;;;10374652;28;20060;-67
2021/12/20 18:40:39;;;;;;;8.20;2.20;;;18.00;68.50;;;;;;10364493;28;20037;-66
2021/12/20 18:45:40;;;;;;;7.95;2.03;;;18.00;68.50;;;;;;10369971;28;20561;-67
2021/12/20 18:50:40;;;;;;;8.35;2.17;;;18.00;68.50;;;;;;10367541;28;20037;-68
2021/12/20 18:55:41;;;;;;;5.40;1.77;;;18.00;68.30;;;;;;10376382;28;20092;-66
2021/12/20 19:00:44;;;;;;;6.15;1.48;;;18.00;68.10;;;;;;10375907;28;20038;-66
2021/12/20 19:05:50;;;;;;;8.70;1.85;;;18.00;68.10;;;;;;10374758;28;20034;-64
2021/12/20 19:11:03;;;;;;;9.48;1.58;;;18.00;68.00;;;;;;10374253;28;20041;-66
2021/12/20 19:16:04;;;;;;;5.47;1.30;;;18.00;68.00;;;;;;10375743;28;20060;-66
2021/12/20 19:21:04;;;;;;;7.47;2.88;;;18.00;68.00;;;;;;10375360;28;20033;-64
2021/12/20 19:26:05;;;;;;;5.45;2.08;;;18.10;68.10;;;;;;10375158;28;20393;-65
2021/12/20 19:31:06;;;;;;;4.55;1.40;;;18.10;68.00;;;;;;10374740;28;20171;-65
2021/12/20 19:36:08;;;;;;;5.90;1.73;;;18.10;68.10;;;;;;10374302;28;20042;-65
2021/12/20 19:41:09;;;;;;;5.35;1.45;;;18.10;68.10;;;;;;10372522;28;20036;-65
2021/12/20 19:46:10;;;;;;;5.50;1.92;;;18.00;68.20;;;;;;10372146;28;20041;-66
2021/12/20 19:51:12;;;;;;;5.25;2.22;;;18.10;68.20;;;;;;10374223;28;20038;-66
2021/12/20 19:56:14;;;;;;;7.38;2.10;;;18.00;68.30;;;;;;10372968;28;20084;-65
2021/12/20 20:01:17;;;;;;;5.28;1.95;;;18.00;68.50;;;;;;10376439;28;20472;-65
2021/12/20 20:06:18;;;;;;;5.40;1.95;;;18.00;68.00;;;;;;10370398;28;20045;-65
2021/12/20 20:11:19;;;;;;;7.20;1.92;;;18.00;67.70;;;;;;10372086;28;20490;-65
2021/12/20 20:16:20;;;;;;;4.40;1.50;;;18.00;67.60;;;;;;10371327;28;20212;-65
2021/12/20 20:21:20;;;;;;;5.90;1.55;;;17.90;67.60;;;;;;10373028;28;20038;-64
2021/12/20 20:26:22;;;;;;;3.40;1.60;;;17.80;67.40;;;;;;10371414;28;20065;-66
2021/12/20 20:31:23;;;;;;;4.15;1.73;;;17.90;67.30;;;;;;10370899;28;20083;-64
2021/12/20 20:36:25;;;;;;;5.35;1.80;;;17.90;67.00;;;;;;10370055;28;20384;-65
2021/12/20 20:41:25;;;;;;;4.82;1.67;;;17.90;67.10;;;;;;10369300;28;20034;-61
2021/12/20 20:46:28;;;;;;;9.07;1.77;;;18.00;67.10;;;;;;10368800;28;20502;-66
2021/12/20 20:51:29;;;;;;;3.72;1.70;;;18.00;67.00;;;;;;10369629;28;20030;-63
2021/12/20 20:56:31;;;;;;;6.68;1.40;;;18.00;66.80;;;;;;10368643;28;20037;-66
2021/12/20 21:01:32;;;;;;;5.78;1.17;;;18.00;66.60;;;;;;10374880;28;20030;-61
2021/12/20 21:06:37;;;;;;;4.50;1.63;;;18.10;66.70;;;;;;10369069;28;20037;-65
2021/12/20 21:11:40;;;;;;;2.95;1.25;;;18.00;66.60;;;;;;10358572;28;20061;-67
2021/12/20 21:16:43;;;;;;;4.25;1.50;;;18.00;66.60;;;;;;10371578;28;20508;-62
2021/12/20 21:21:45;;;;;;;6.10;1.95;;;18.10;66.40;;;;;;10370601;28;20049;-62
2021/12/20 21:26:45;;;;;;;4.43;1.00;;;18.10;66.30;;;;;;10371454;28;20041;-62
2021/12/20 21:31:51;;;;;;;4.53;1.40;;;18.10;66.10;;;;;;10371089;28;20109;-62
2021/12/20 21:36:52;;;;;;;3.78;1.52;;;18.10;66.10;;;;;;10370248;28;20483;-63
2021/12/20 21:41:54;;;;;;;3.47;1.50;;;18.10;65.90;;;;;;10369821;28;20041;-64
2021/12/20 21:46:54;;;;;;;2.50;1.17;;;18.10;65.80;;;;;;10371426;28;20026;-61
2021/12/20 21:51:55;;;;;;;5.07;1.58;;;18.20;65.60;;;;;;10370756;28;20052;-62
2021/12/20 21:56:56;;;;;;;3.63;1.25;;;18.20;65.60;;;;;;10370730;28;20387;-63
2021/12/20 22:01:56;;;;;;;3.53;1.38;;;18.20;65.40;;;;;;10371224;28;20384;-61
2021/12/20 22:06:57;;;;;;;2.67;1.30;;;18.20;65.40;;;;;;10372102;28;20037;-63
2021/12/20 22:11:58;;;;;;;2.25;1.10;;;18.20;65.30;;;;;;10378090;28;20040;-63
2021/12/20 22:16:59;;;;;;;2.58;1.23;;;18.20;65.40;;;;;;10378142;28;20037;-61
2021/12/20 22:21:59;;;;;;;3.05;1.20;;;18.20;65.30;;;;;;10373650;28;20193;-65
2021/12/20 22:27:00;;;;;;;3.95;0.93;;;18.10;65.20;;;;;;10378060;28;20030;-65
2021/12/20 22:32:02;;;;;;;3.40;1.25;;;18.30;65.10;;;;;;10377269;28;20121;-62
2021/12/20 22:37:03;;;;;;;3.13;1.35;;;18.20;64.80;;;;;;10377631;28;20040;-65
2021/12/20 22:42:04;;;;;;;4.13;1.40;;;18.20;64.90;;;;;;10376888;28;20048;-61
2021/12/20 22:47:05;;;;;;;2.85;1.38;;;18.20;64.70;;;;;;10376025;28;20038;-65
2021/12/20 22:52:06;;;;;;;2.58;1.13;;;18.20;64.80;;;;;;10376814;28;20030;-67
2021/12/20 22:57:08;;;;;;;2.63;1.02;;;18.30;64.60;;;;;;10376889;28;20033;-66
2021/12/20 23:02:09;;;;;;;3.70;1.17;;;18.40;64.40;;;;;;10383090;28;20045;-64
2021/12/20 23:07:09;;;;;;;5.88;1.95;;;18.40;64.30;;;;;;10375944;28;20056;-61
2021/12/20 23:12:20;;;;;;;4.10;1.40;;;18.40;64.00;;;;;;10375684;28;20085;-65
2021/12/20 23:17:21;;;;;;;2.85;1.58;;;18.40;64.10;;;;;;10375292;28;20034;-64
2021/12/20 23:22:24;;;;;;;2.60;1.25;;;18.40;64.10;;;;;;10375485;28;20125;-65
2021/12/20 23:27:26;;;;;;;4.07;1.63;;;18.40;64.20;;;;;;10375809;28;20077;-64
2021/12/20 23:32:26;;;;;;;2.78;1.27;;;18.40;64.10;;;;;;10375305;28;20041;-65
2021/12/20 23:37:28;;;;;;;1.92;0.95;;;18.30;64.10;;;;;;10374935;28;20040;-65
2021/12/20 23:42:34;;;;;;;2.20;1.15;;;18.30;63.90;;;;;;10375049;28;20041;-64
2021/12/20 23:47:35;;;;;;;3.20;1.25;;;18.40;64.00;;;;;;10374481;28;20377;-65
2021/12/20 23:52:36;;;;;;;3.15;1.10;;;18.40;63.90;;;;;;10374662;28;20030;-63
2021/12/20 23:57:37;;;;;;;3.75;1.25;;;18.40;63.80;;;;;;10373218;28;20030;-63
